Koekelare, Belgium
Current Conditions -  °F | °C
As of 6:50 PM on Wednesday 28 Jan 2015 (Local Time) from EBOS Reporting Station
Few Clouds Few Clouds  
Wind Chill: 30°   Ceiling: Unl
Heat Index: 41°   Visibility: 6mi
Dew Point: 30°   Wind: 26mph
Humidity: 65%   Direction: 280°W
Pressure: 29.53"   Gusts: NA
Location:  51.09°N, 2.98°E
Report Text: EBOS 281750Z 28023KT 9999 FEW020 05/M01 Q1000 TEMPO 28023G33KT
Loading
Personal Weather Stations






























Interactive Weather Map New forecast layout! Learn more

10-Day Weather Forecast

Advertisements
Track Severe Weather on mobile